Bricelyn, Minnesota
Current Conditions -  °F | °C
As of 8:51 PM on Sunday 21 Dec 2014 (Local Time) from KAEL Reporting Station
Haze Haze  
Wind Chill: 30°   Ceiling: 600
Heat Index: 37°   Visibility: 1.7mi
Dew Point: 37°   Wind: 12mph
Humidity: 100%   Direction: 160°SSE
Pressure: 29.73"   Gusts: NA
Location:  43.56°N, 93.81°W
Report Text: KAEL 220251Z AUTO 16010KT 1 3/4SM BR OVC006 03/03 A2973 RMK AO2
Loading
Personal Weather Stations






























Interactive Weather Map New forecast layout! Learn more

10-Day Weather Forecast

Advertisements
Track Severe Weather on mobile